Time;durP1;ratioP1;P1;durP2;ratioP2;P2;SDS_P1;SDS_P2;PMS_P1;PMS_P2;Temp;Humidity;BMP_temperature;BMP_pressure;BME280_temperature;BME280_humidity;BME280_pressure;Samples;Min_cycle;Max_cycle;Signal;HPM_P1;HPM_P2
2022/09/19 00:01:18;;;;;;;;;3.50;3.00;;;;;14.96;52.26;101373.97;4824469;29;45804;-80
2022/09/19 00:03:58;;;;;;;;;4.25;3.50;;;;;15.01;52.15;101379.75;4824461;29;45778;-83
2022/09/19 00:06:26;;;;;;;;;3.25;3.25;;;;;15.03;52.62;101385.75;4825053;29;45764;-83
2022/09/19 00:08:52;;;;;;;;;4.00;2.75;;;;;15.05;52.53;101385.66;4824713;29;46212;-82
2022/09/19 00:11:19;;;;;;;;;3.25;3.00;;;;;14.99;52.50;101365.84;4825115;29;46215;-81
2022/09/19 00:13:48;;;;;;;;;4.00;4.00;;;;;15.05;52.63;101381.22;4826948;29;45724;-81
2022/09/19 00:16:20;;;;;;;;;3.50;3.00;;;;;15.06;52.74;101379.41;4825500;29;45600;-79
2022/09/19 00:18:48;;;;;;;;;4.00;3.25;;;;;15.05;52.80;101375.09;4825794;29;45889;-80
2022/09/19 00:21:25;;;;;;;;;4.00;3.50;;;;;15.05;52.74;101381.22;4827085;29;46020;-81
2022/09/19 00:26:36;;;;;;;;;6.00;5.00;;;;;15.03;53.13;101380.47;4828952;29;45588;-79
2022/09/19 00:29:02;;;;;;;;;2.75;2.75;;;;;15.01;52.90;101365.69;4828183;29;47687;-79
2022/09/19 00:31:28;;;;;;;;;4.00;4.00;;;;;15.07;52.99;101381.06;4829283;29;45684;-81
2022/09/19 00:33:54;;;;;;;;;3.00;3.00;;;;;15.08;52.85;101383.59;4829834;29;45703;-80
2022/09/19 00:36:20;;;;;;;;;2.50;2.50;;;;;14.99;53.11;101368.47;4827398;29;45827;-81
2022/09/19 00:38:46;;;;;;;;;3.00;2.00;;;;;15.05;53.22;101378.56;4824823;29;47337;-84
2022/09/19 00:41:17;;;;;;;;;3.25;2.00;;;;;15.11;53.36;101383.34;4826799;29;45708;-84
2022/09/19 00:43:58;;;;;;;;;3.25;3.00;;;;;15.11;53.28;101382.53;4826128;29;45697;-82
2022/09/19 00:46:30;;;;;;;;;4.00;2.00;;;;;15.11;53.18;101387.81;4824249;29;45450;-82
2022/09/19 00:49:01;;;;;;;;;3.50;3.00;;;;;15.09;53.38;101385.28;4824868;29;45675;-82
2022/09/19 00:51:36;;;;;;;;;2.50;2.50;;;;;15.08;53.38;101393.31;4824528;29;46522;-83
2022/09/19 00:54:07;;;;;;;;;2.75;2.25;;;;;15.03;53.22;101387.56;4831274;29;45704;-77
2022/09/19 00:56:33;;;;;;;;;4.00;3.00;;;;;15.06;53.32;101396.06;4832095;29;45672;-82
2022/09/19 00:59:01;;;;;;;;;1.50;1.50;;;;;15.00;53.46;101385.16;4826148;29;45493;-83
2022/09/19 01:01:27;;;;;;;;;3.00;2.00;;;;;15.03;53.28;101390.19;4824740;29;45615;-82
2022/09/19 01:03:55;;;;;;;;;2.00;2.00;;;;;15.02;53.68;101389.34;4824136;29;45762;-82
2022/09/19 01:06:39;;;;;;;;;2.00;2.00;;;;;15.03;53.45;101391.03;4824020;29;45599;-80
2022/09/19 01:09:08;;;;;;;;;3.00;3.00;;;;;15.04;53.57;101398.00;4822457;29;47444;-81
2022/09/19 01:11:56;;;;;;;;;3.00;2.25;;;;;15.03;53.74;101396.31;4823669;29;46095;-82
2022/09/19 01:14:53;;;;;;;;;4.25;3.75;;;;;15.01;53.51;101392.09;4823470;29;45661;-80
2022/09/19 01:17:26;;;;;;;;;4.75;3.00;;;;;15.01;53.50;101397.38;4823589;29;45613;-81
2022/09/19 01:20:28;;;;;;;;;5.00;4.00;;;;;15.00;53.74;101393.91;4823287;29;45578;-83
2022/09/19 01:23:15;;;;;;;;;3.75;3.00;;;;;15.00;53.54;101388.66;4826704;29;46130;-81
2022/09/19 01:25:52;;;;;;;;;2.25;2.00;;;;;15.01;53.86;101387.66;4825680;29;45886;-82
2022/09/19 01:28:24;;;;;;;;;2.50;2.25;;;;;15.03;53.85;101390.19;4825696;29;45615;-81
2022/09/19 01:31:17;;;;;;;;;3.00;3.00;;;;;15.01;53.81;101387.66;4824312;29;46539;-81
2022/09/19 01:33:54;;;;;;;;;2.75;2.75;;;;;14.99;53.66;101384.31;4823166;29;46036;-81
2022/09/19 01:36:23;;;;;;;;;2.00;2.00;;;;;15.02;53.97;101389.34;4823040;29;45804;-80
2022/09/19 01:38:51;;;;;;;;;3.00;3.00;;;;;15.04;54.00;101391.88;4823112;29;45711;-81
2022/09/19 01:41:21;;;;;;;;;2.75;2.50;;;;;15.04;53.74;101394.50;4822977;29;46401;-79
2022/09/19 01:44:00;;;;;;;;;3.75;3.50;;;;;15.05;53.82;101396.19;4821646;29;47086;-81
2022/09/19 01:46:49;;;;;;;;;1.75;1.00;;;;;15.05;54.08;101399.69;4822779;29;45753;-80
2022/09/19 01:50:25;;;;;;;;;2.25;2.25;;;;;15.03;53.93;101398.94;4823090;29;45898;-82
2022/09/19 01:56:05;;;;;;;;;2.00;2.00;;;;;15.01;54.34;101394.72;4822535;29;45864;-80
2022/09/19 01:58:43;;;;;;;;;4.00;2.50;;;;;14.97;54.16;101391.50;4823178;29;45520;-81
2022/09/19 02:01:19;;;;;;;;;4.00;3.00;;;;;14.98;54.27;101395.81;4823128;29;45775;-77
2022/09/19 02:04:01;;;;;;;;;2.00;2.00;;;;;14.98;54.31;101397.63;4822660;29;46454;-77
2022/09/19 02:06:46;;;;;;;;;3.00;2.00;;;;;14.95;54.27;101398.69;4822669;29;45907;-79
2022/09/19 02:12:36;;;;;;;;;1.50;1.50;;;;;14.96;54.44;101399.53;4820514;29;45664;-82
2022/09/19 02:15:14;;;;;;;;;2.25;2.00;;;;;14.81;54.14;101377.81;4820779;29;46431;-79
2022/09/19 02:17:50;;;;;;;;;2.00;2.00;;;;;14.85;54.19;101379.25;4821162;29;46215;-79
2022/09/19 02:20:22;;;;;;;;;4.00;3.00;;;;;15.01;54.39;101406.13;4805751;29;45776;-76
2022/09/19 02:22:53;;;;;;;;;3.50;3.00;;;;;14.85;54.26;101381.03;4821855;29;45892;-81
2022/09/19 02:25:32;;;;;;;;;4.00;2.00;;;;;14.96;54.50;101400.38;4820916;29;47501;-81
2022/09/19 02:28:04;;;;;;;;;3.00;3.00;;;;;15.00;54.30;101415.03;4822885;29;47077;-78
2022/09/19 02:30:30;;;;;;;;;3.50;3.00;;;;;15.01;54.28;101413.19;4820404;29;45705;-83
2022/09/19 02:32:57;;;;;;;;;3.00;2.00;;;;;14.90;54.88;101395.56;4823407;29;45946;-82
2022/09/19 02:35:49;;;;;;;;;3.00;2.00;;;;;14.95;54.55;101406.59;4823347;29;45719;-80
2022/09/19 02:38:34;;;;;;;;;2.50;1.50;;;;;14.91;55.04;101405.16;4822919;29;46630;-78
2022/09/19 02:41:21;;;;;;;;;2.25;2.00;;;;;14.87;55.01;101406.34;4825154;29;45627;-82
2022/09/19 02:44:31;;;;;;;;;3.00;2.25;;;;;14.88;54.91;101407.19;4825625;29;45543;-83
2022/09/19 02:47:14;;;;;;;;;2.25;2.00;;;;;14.85;54.81;101408.25;4735743;29;47601;-82
2022/09/19 02:49:49;;;;;;;;;3.00;2.25;;;;;14.83;55.10;101412.84;4750903;29;47033;-81
2022/09/19 02:55:28;;;;;;;;;3.00;3.00;;;;;14.83;55.25;101410.19;4750626;29;45820;-82
2022/09/19 02:57:58;;;;;;;;;3.00;3.00;;;;;14.84;55.37;101411.88;4750599;29;46452;-82
2022/09/19 03:01:28;;;;;;;;;3.75;3.00;;;;;14.79;55.11;101402.63;4751051;29;47494;-80
2022/09/19 03:10:24;;;;;;;;;2.00;2.00;;;;;14.76;54.89;101394.94;4666372;30;45716;-79
2022/09/19 03:13:01;;;;;;;;;3.00;3.00;;;;;14.86;55.15;101412.59;4651544;30;47993;-83
2022/09/19 03:15:38;;;;;;;;;2.00;2.00;;;;;14.86;54.73;101417.88;4663640;30;45889;-81
2022/09/19 03:18:13;;;;;;;;;2.25;2.00;;;;;14.76;54.39;101393.16;4663379;30;46004;-81
2022/09/19 03:20:44;;;;;;;;;3.00;3.00;;;;;14.88;55.08;101415.97;4656235;30;46746;-78
2022/09/19 03:26:34;;;;;;;;;3.00;3.00;;;;;14.86;55.17;101409.94;4680086;30;45650;-81
2022/09/19 03:29:02;;;;;;;;;3.00;3.00;;;;;14.71;55.31;101390.00;4694896;30;45616;-80
2022/09/19 03:31:28;;;;;;;;;5.50;3.00;;;;;14.74;55.56;101400.31;4680494;30;45627;-77
2022/09/19 03:33:57;;;;;;;;;4.00;3.50;;;;;14.78;55.66;101417.63;4680120;30;46301;-79
2022/09/19 03:36:24;;;;;;;;;4.00;3.50;;;;;14.72;55.40;101406.69;4680287;30;45873;-79
2022/09/19 03:42:27;;;;;;;;;4.00;4.00;;;;;14.61;56.13;101416.25;4712944;30;45820;-80
2022/09/19 03:44:53;;;;;;;;;3.25;3.00;;;;;14.57;56.31;101424.50;4760045;29;47411;-82
2022/09/19 03:47:21;;;;;;;;;5.75;3.75;;;;;14.52;55.96;101427.47;4804094;29;45738;-81
2022/09/19 03:49:50;;;;;;;;;4.00;4.00;;;;;14.49;56.52;101424.22;4810121;29;45608;-81
2022/09/19 03:52:16;;;;;;;;;3.00;3.00;;;;;14.47;56.52;101424.34;4812081;29;46427;-79
2022/09/19 03:58:04;;;;;;;;;5.00;4.00;;;;;14.41;56.55;101431.88;4807672;29;45584;-82
2022/09/19 04:00:30;;;;;;;;;3.00;2.00;;;;;14.29;56.81;101418.63;4806613;29;45669;-80
2022/09/19 04:02:56;;;;;;;;;4.75;3.75;;;;;14.29;56.94;101415.97;4805912;29;47340;-79
2022/09/19 04:05:22;;;;;;;;;3.25;2.75;;;;;14.34;57.12;101433.25;4796253;29;47271;-81
2022/09/19 04:07:47;;;;;;;;;0.00;0.00;;;;;14.32;57.00;101435.97;4806496;29;45750;-82
2022/09/19 04:13:35;;;;;;;;;3.50;3.50;;;;;14.28;57.29;101435.38;4806171;29;45927;-81
2022/09/19 04:16:01;;;;;;;;;3.00;3.00;;;;;14.26;57.11;101436.44;4806282;29;46073;-82
2022/09/19 04:18:28;;;;;;;;;4.50;3.00;;;;;14.21;57.31;101434.13;4806072;29;45740;-82
2022/09/19 04:20:54;;;;;;;;;2.50;2.50;;;;;13.97;56.80;101400.84;4806601;29;45711;-82
2022/09/19 04:23:19;;;;;;;;;2.50;2.50;;;;;14.20;57.52;101442.13;4806083;29;45559;-81
2022/09/19 04:25:46;;;;;;;;;4.00;2.75;;;;;14.17;57.22;101439.75;4805908;29;45927;-82
2022/09/19 04:28:12;;;;;;;;;4.00;4.00;;;;;14.15;57.33;101444.28;4806195;29;45616;-84
2022/09/19 04:30:40;;;;;;;;;4.00;4.00;;;;;14.12;57.62;101444.50;4806228;29;45638;-83
2022/09/19 04:33:07;;;;;;;;;3.25;3.00;;;;;14.04;57.42;101445.06;4805709;29;45546;-83
2022/09/19 04:35:35;;;;;;;;;3.00;3.00;;;;;14.04;57.92;101446.84;4806010;29;46025;-81
2022/09/19 04:38:09;;;;;;;;;4.00;3.50;;;;;14.02;58.10;101446.13;4806018;29;45532;-82
2022/09/19 04:43:56;;;;;;;;;15.75;12.50;;;;;13.91;57.96;101440.78;4829793;29;46552;-82
2022/09/19 04:46:22;;;;;;;;;11.00;9.00;;;;;13.71;58.41;101413.25;4831554;29;45837;-82
2022/09/19 04:48:48;;;;;;;;;9.00;8.00;;;;;13.73;58.71;101421.88;4828927;29;45434;-84
2022/09/19 04:51:13;;;;;;;;;7.75;6.25;;;;;13.87;58.19;101453.34;4830604;29;45773;-82
2022/09/19 04:53:39;;;;;;;;;9.25;6.50;;;;;13.80;58.57;101449.47;4827860;29;45713;-80
2022/09/19 04:56:05;;;;;;;;;7.00;7.00;;;;;13.73;58.50;101437.66;4826990;29;46452;-81
2022/09/19 04:58:30;;;;;;;;;5.00;5.00;;;;;13.79;58.75;101453.03;4828937;29;45496;-82
2022/09/19 05:00:55;;;;;;;;;5.25;5.00;;;;;13.76;58.56;101455.91;4828435;29;45505;-82
2022/09/19 05:03:26;;;;;;;;;4.00;4.00;;;;;13.76;59.22;101456.75;4826668;29;45601;-80
2022/09/19 05:05:53;;;;;;;;;4.00;4.00;;;;;13.73;59.02;101456.94;4825216;29;46131;-80
2022/09/19 05:08:27;;;;;;;;;4.75;4.75;;;;;13.59;59.23;101436.03;4825010;29;45526;-80
2022/09/19 05:14:15;;;;;;;;;4.50;4.00;;;;;13.58;59.47;101449.28;4827600;29;46071;-81
2022/09/19 05:16:41;;;;;;;;;4.00;3.50;;;;;13.45;59.26;101434.34;4826215;29;46047;-81
2022/09/19 05:19:08;;;;;;;;;2.25;2.25;;;;;13.58;59.74;101462.44;4824069;29;45683;-82
2022/09/19 05:21:34;;;;;;;;;4.50;4.50;;;;;13.57;59.43;101463.38;4822404;29;45822;-80
2022/09/19 05:24:01;;;;;;;;;3.50;3.25;;;;;13.54;59.93;101468.88;4823535;29;46505;-82
2022/09/19 05:26:27;;;;;;;;;5.50;4.00;;;;;13.52;59.69;101466.34;4823406;29;46237;-79
2022/09/19 05:28:53;;;;;;;;;6.25;5.25;;;;;13.47;59.72;101459.72;4822912;29;45643;-76
2022/09/19 05:31:20;;;;;;;;;4.00;4.00;;;;;13.45;59.67;101462.44;4823278;29;45611;-77
2022/09/19 05:33:48;;;;;;;;;3.75;3.75;;;;;13.35;60.15;101446.47;4822672;29;45711;-77
2022/09/19 05:36:14;;;;;;;;;5.00;4.00;;;;;13.41;60.20;101466.25;4821440;29;47003;-77
2022/09/19 05:38:40;;;;;;;;;4.75;4.00;;;;;13.26;60.16;101447.09;4823088;29;45589;-78
2022/09/19 05:44:27;;;;;;;;;5.00;5.00;;;;;13.42;60.61;101481.94;4821777;29;45648;-78
2022/09/19 05:46:52;;;;;;;;;3.25;3.25;;;;;13.41;60.37;101485.53;4822845;29;45705;-76
2022/09/19 05:49:18;;;;;;;;;4.25;4.00;;;;;13.41;60.62;101479.41;4822457;29;45596;-77
2022/09/19 05:51:43;;;;;;;;;4.00;4.00;;;;;13.41;60.45;101476.78;4821505;29;45573;-78
2022/09/19 05:54:09;;;;;;;;;5.00;5.00;;;;;13.41;60.92;101480.25;4822183;29;45720;-77
2022/09/19 05:56:34;;;;;;;;;5.75;3.00;;;;;13.42;60.79;101475.84;4822802;29;46114;-78
2022/09/19 05:59:00;;;;;;;;;4.50;4.00;;;;;13.38;60.70;101480.47;4822573;29;45507;-77
2022/09/19 06:01:25;;;;;;;;;5.00;4.25;;;;;13.37;60.47;101484.06;4823024;29;45508;-75
2022/09/19 06:03:50;;;;;;;;;3.50;3.00;;;;;13.24;60.88;101461.28;4822625;29;46251;-77
2022/09/19 06:06:20;;;;;;;;;5.00;5.00;;;;;13.38;60.89;101487.53;4825164;29;45711;-75
2022/09/19 06:08:53;;;;;;;;;4.75;4.00;;;;;13.35;60.65;101483.31;4826209;29;45662;-76
2022/09/19 06:14:40;;;;;;;;;5.00;4.75;;;;;13.34;61.05;101497.41;4826175;29;45605;-75
2022/09/19 06:17:05;;;;;;;;;4.75;4.75;;;;;13.31;61.20;101486.25;4826352;29;45888;-76
2022/09/19 06:19:31;;;;;;;;;5.25;5.25;;;;;13.37;60.64;101499.84;4824993;29;45591;-77
2022/09/19 06:21:57;;;;;;;;;3.00;3.00;;;;;13.37;60.99;101502.47;4826468;29;45996;-75
2022/09/19 06:24:23;;;;;;;;;4.75;4.75;;;;;13.43;61.26;101511.75;4809746;29;46582;-74
2022/09/19 06:26:53;;;;;;;;;6.25;5.00;;;;;13.43;61.42;101509.97;4825741;29;47040;-76
2022/09/19 06:29:19;;;;;;;;;8.00;7.00;;;;;13.43;60.49;101512.59;4826196;29;45794;-74
2022/09/19 06:31:44;;;;;;;;;6.25;5.25;;;;;13.43;60.93;101509.97;4826278;29;45726;-74
2022/09/19 06:34:12;;;;;;;;;4.00;4.00;;;;;13.51;60.75;101519.94;4825581;29;45604;-76
2022/09/19 06:36:37;;;;;;;;;5.00;5.00;;;;;13.53;61.33;101527.75;4825352;29;45636;-75
2022/09/19 06:39:03;;;;;;;;;4.75;4.75;;;;;13.53;61.29;101523.31;4825467;29;45673;-75
2022/09/19 06:44:50;;;;;;;;;6.50;6.00;;;;;13.58;60.69;101538.81;4823945;29;46175;-74
2022/09/19 06:47:16;;;;;;;;;5.00;5.00;;;;;13.62;61.06;101540.28;4825078;29;46191;-75
2022/09/19 06:49:41;;;;;;;;;5.00;5.00;;;;;13.63;61.25;101548.06;4808634;29;45962;-75
2022/09/19 06:52:08;;;;;;;;;4.00;4.00;;;;;13.66;60.63;101547.00;4825284;29;45831;-77
2022/09/19 07:00:44;;;;;;;;;5.25;5.25;;;;;13.64;61.02;101543.66;4824979;29;45591;-78
2022/09/19 07:03:17;;;;;;;;;8.00;6.00;;;;;13.66;60.80;101550.47;4808413;29;45636;-76
2022/09/19 07:05:45;;;;;;;;;8.50;5.75;;;;;13.64;60.82;101541.88;4824722;29;47599;-75
2022/09/19 07:08:13;;;;;;;;;8.00;6.50;;;;;13.70;61.31;101559.03;4823680;29;47131;-75
2022/09/19 07:10:39;;;;;;;;;7.50;6.00;;;;;13.61;60.81;101547.31;4825320;29;45511;-78
2022/09/19 07:13:06;;;;;;;;;5.75;5.75;;;;;13.73;60.96;101562.28;4825059;29;45549;-79
2022/09/19 07:15:34;;;;;;;;;7.50;4.25;;;;;13.64;60.81;101546.28;4824822;29;46593;-79
2022/09/19 07:18:00;;;;;;;;;6.00;6.00;;;;;13.76;60.99;101566.53;4824211;29;47160;-78
2022/09/19 07:20:27;;;;;;;;;8.00;6.00;;;;;13.79;60.67;101561.03;4824704;29;45556;-78
2022/09/19 07:23:00;;;;;;;;;4.75;4.75;;;;;13.79;60.99;101569.78;4825129;29;45842;-80
2022/09/19 07:28:48;;;;;;;;;4.75;4.00;;;;;13.78;61.21;101561.97;4824807;29;45684;-78
2022/09/19 07:31:14;;;;;;;;;7.00;6.00;;;;;13.81;60.52;101564.41;4824494;29;45596;-79
2022/09/19 07:33:39;;;;;;;;;6.25;6.25;;;;;13.90;60.80;101576.94;4824106;29;46058;-79
2022/09/19 07:36:06;;;;;;;;;3.75;3.75;;;;;13.93;60.68;101579.34;4824873;29;45531;-78
2022/09/19 07:38:34;;;;;;;;;10.25;6.00;;;;;13.92;60.50;101561.88;4824901;29;46220;-78
2022/09/19 07:44:22;;;;;;;;;5.50;5.00;;;;;14.02;60.38;101577.88;4825090;29;45771;-78
2022/09/19 07:47:26;;;;;;;;;5.00;5.00;;;;;14.07;60.76;101592.41;4825118;29;46455;-80
2022/09/19 07:49:32;;;;;;;;;9.25;7.00;;;;;14.08;60.67;101582.72;4825752;29;45737;-75
2022/09/19 07:51:58;;;;;;;;;6.00;6.00;;;;;14.13;60.88;101592.00;4826252;29;45688;-79
2022/09/19 07:54:23;;;;;;;;;8.00;7.75;;;;;14.15;60.60;101590.06;4824936;29;45664;-81
2022/09/19 08:00:11;;;;;;;;;8.00;4.00;;;;;14.23;60.58;101600.94;4824387;29;46199;-77
2022/09/19 08:02:36;;;;;;;;;6.50;5.00;;;;;14.25;60.64;101596.38;4824566;29;45602;-76
2022/09/19 08:05:01;;;;;;;;;4.75;4.25;;;;;14.32;60.37;101596.78;4824275;29;45642;-78
2022/09/19 08:07:27;;;;;;;;;6.00;4.50;;;;;14.34;60.15;101591.41;4824204;29;46316;-76
2022/09/19 08:09:52;;;;;;;;;6.75;6.00;;;;;14.42;60.21;101600.47;4824159;29;45679;-79
2022/09/19 08:15:40;;;;;;;;;4.25;4.00;;;;;14.45;60.02;101586.25;4824019;29;45755;-80
2022/09/19 08:18:12;;;;;;;;;4.25;3.50;;;;;14.57;59.94;101598.56;4824162;29;45590;-78
2022/09/19 08:20:38;;;;;;;;;6.00;4.00;;;;;14.67;59.56;101607.50;4824098;29;45952;-78
2022/09/19 08:23:10;;;;;;;;;4.75;4.00;;;;;14.72;59.47;101607.16;4824109;29;45550;-78
2022/09/19 08:25:38;;;;;;;;;5.50;4.00;;;;;14.77;59.44;101605.88;4823627;29;45528;-78
2022/09/19 08:28:04;;;;;;;;;3.00;3.00;;;;;14.82;59.11;101602.91;4823574;29;46425;-78
2022/09/19 08:30:33;;;;;;;;;3.00;2.00;;;;;14.79;58.82;101597.84;4823270;29;46020;-75
2022/09/19 08:33:00;;;;;;;;;2.00;2.00;;;;;14.92;58.07;101615.31;4823836;29;45823;-77
2022/09/19 08:35:27;;;;;;;;;2.75;2.00;;;;;14.98;57.92;101616.66;4823558;29;45718;-74
2022/09/19 08:37:58;;;;;;;;;3.00;2.00;;;;;15.02;57.55;101618.94;4823477;29;46289;-77
2022/09/19 08:40:25;;;;;;;;;3.00;3.00;;;;;15.07;57.46;101615.97;4823915;29;45812;-77
2022/09/19 08:46:19;;;;;;;;;3.25;1.25;;;;;15.18;56.13;101631.84;4821354;29;45799;-78
2022/09/19 08:48:58;;;;;;;;;2.00;1.50;;;;;15.22;56.20;101611.38;4823605;29;45753;-78
2022/09/19 08:52:05;;;;;;;;;2.50;1.50;;;;;15.26;55.50;101621.59;4823698;29;45912;-78
2022/09/19 08:54:35;;;;;;;;;3.00;2.00;;;;;15.30;55.09;101619.56;4823372;29;45686;-78
2022/09/19 08:57:01;;;;;;;;;2.00;2.00;;;;;15.33;55.31;101625.44;4823520;29;45929;-77
2022/09/19 08:59:41;;;;;;;;;1.25;1.25;;;;;15.33;55.03;101616.69;4823289;29;45693;-76
2022/09/19 09:02:37;;;;;;;;;2.00;1.00;;;;;15.24;54.52;101598.88;4823112;29;46152;-79
2022/09/19 09:05:05;;;;;;;;;1.00;1.00;;;;;15.47;54.59;101641.09;4821742;29;45681;-78
2022/09/19 09:07:33;;;;;;;;;2.00;1.00;;;;;15.51;54.29;101621.47;4823386;29;45677;-77
2022/09/19 09:10:18;;;;;;;;;1.75;1.00;;;;;15.57;54.18;101621.94;4823653;29;46572;-78
2022/09/19 09:12:59;;;;;;;;;1.00;1.00;;;;;15.62;53.94;101627.72;4823226;29;46050;-78
2022/09/19 09:16:09;;;;;;;;;2.00;1.00;;;;;15.68;53.73;101622.81;4823360;29;45763;-78
2022/09/19 09:19:08;;;;;;;;;0.00;0.00;;;;;15.75;52.67;101626.69;4823315;29;45457;-78
2022/09/19 09:21:46;;;;;;;;;0.50;0.25;;;;;15.79;52.24;101625.50;4823239;29;46403;-80
2022/09/19 09:24:24;;;;;;;;;0.00;0.00;;;;;15.74;51.92;101605.66;4823212;29;46181;-78
2022/09/19 09:30:20;;;;;;;;;1.50;0.50;;;;;15.81;51.59;101597.16;4823533;29;45787;-79
2022/09/19 09:32:56;;;;;;;;;1.00;1.00;;;;;15.74;51.43;101593.28;4823527;29;46276;-81
2022/09/19 09:35:34;;;;;;;;;1.75;1.00;;;;;15.73;51.15;101577.53;4823890;29;46084;-78
2022/09/19 09:38:21;;;;;;;;;1.25;0.00;;;;;16.11;50.36;101633.56;4823446;29;45724;-79
2022/09/19 09:47:43;;;;;;;;;0.00;0.00;;;;;16.20;48.60;101639.94;4822830;29;46406;-79
2022/09/19 09:50:47;;;;;;;;;0.75;0.00;;;;;16.18;48.67;101634.78;4823633;29;45603;-76
2022/09/19 09:53:50;;;;;;;;;0.75;0.00;;;;;16.25;48.46;101643.91;4819429;29;46130;-78
2022/09/19 09:56:34;;;;;;;;;0.00;0.00;;;;;15.86;48.50;101563.28;4822543;29;46590;-79
2022/09/19 09:59:05;;;;;;;;;0.00;0.00;;;;;16.34;48.01;101623.84;4815478;29;46597;-77
2022/09/19 10:05:13;;;;;;;;;0.00;0.00;;;;;16.46;46.99;101637.91;4802911;29;45723;-76
2022/09/19 10:08:12;;;;;;;;;0.00;0.00;;;;;15.97;46.87;101537.81;4803011;29;45645;-76
2022/09/19 10:10:45;;;;;;;;;0.00;0.00;;;;;16.53;46.75;101637.28;4768399;29;45884;-77
2022/09/19 10:13:39;;;;;;;;;0.00;0.00;;;;;16.57;46.97;101622.84;4802761;29;45774;-77
2022/09/19 10:16:08;;;;;;;;;0.75;0.00;;;;;16.25;47.03;101566.38;4802061;29;45703;-76
2022/09/19 10:18:45;;;;;;;;;0.00;0.00;;;;;16.64;46.88;101621.41;4801984;29;46499;-77
2022/09/19 10:21:11;;;;;;;;;0.00;0.00;;;;;16.50;46.41;101597.84;4802091;29;45942;-76
2022/09/19 10:23:57;;;;;;;;;0.00;0.00;;;;;16.30;46.14;101551.00;4801893;29;45982;-76
2022/09/19 10:29:57;;;;;;;;;0.00;0.00;;;;;16.74;45.77;101606.47;4801847;29;46091;-75
2022/09/19 10:32:37;;;;;;;;;0.00;0.00;;;;;16.42;45.48;101550.00;4802004;29;45883;-74
2022/09/19 10:35:31;;;;;;;;;0.00;0.00;;;;;16.81;45.83;101614.78;4801643;29;45690;-75
2022/09/19 10:38:09;;;;;;;;;0.00;0.00;;;;;16.64;45.75;101587.03;4801723;29;45821;-75
2022/09/19 10:40:34;;;;;;;;;0.25;0.00;;;;;16.73;45.78;101596.84;4805934;29;45700;-77
2022/09/19 10:46:35;;;;;;;;;0.00;0.00;;;;;16.95;45.75;101605.72;4821790;29;45836;-76
2022/09/19 10:49:06;;;;;;;;;0.00;0.00;;;;;16.98;45.73;101605.44;4822542;29;45607;-75
2022/09/19 10:51:44;;;;;;;;;0.50;0.00;;;;;16.97;45.59;101601.13;4822367;29;46580;-73
2022/09/19 10:54:20;;;;;;;;;0.00;0.00;;;;;17.06;45.69;101603.00;4825357;29;46183;-76
2022/09/19 10:56:46;;;;;;;;;0.00;0.00;;;;;17.03;45.65;101604.13;4825300;29;45681;-76
2022/09/19 10:59:12;;;;;;;;;0.00;0.00;;;;;17.14;45.72;101616.47;4825590;29;45786;-76
2022/09/19 11:01:39;;;;;;;;;1.00;0.00;;;;;17.18;45.28;101607.28;4825371;29;46219;-76
2022/09/19 11:04:24;;;;;;;;;1.00;1.00;;;;;17.22;45.66;101611.34;4825103;29;46385;-76
2022/09/19 11:07:02;;;;;;;;;0.00;0.00;;;;;17.26;45.60;101612.81;4825276;29;45638;-76
2022/09/19 11:09:37;;;;;;;;;0.00;0.00;;;;;17.08;45.00;101574.59;4825131;29;45725;-79
2022/09/19 11:12:10;;;;;;;;;0.00;0.00;;;;;17.25;45.00;101589.09;4825425;29;45609;-75
2022/09/19 11:14:40;;;;;;;;;1.00;0.00;;;;;17.29;44.59;101591.34;4824845;29;45882;-73
2022/09/19 11:17:39;;;;;;;;;0.00;0.00;;;;;17.38;44.81;101601.16;4824866;29;45693;-77
2022/09/19 11:20:17;;;;;;;;;1.00;0.25;;;;;17.42;44.87;101593.81;4824983;29;46004;-77
2022/09/19 11:23:13;;;;;;;;;0.50;0.00;;;;;17.46;44.17;101598.72;4824915;29;46563;-76
2022/09/19 11:26:03;;;;;;;;;2.00;0.25;;;;;17.52;44.30;101592.91;4824633;29;46016;-77
2022/09/19 11:28:53;;;;;;;;;0.00;0.00;;;;;17.57;43.99;101593.38;4825037;29;45677;-75
2022/09/19 11:31:44;;;;;;;;;1.00;0.00;;;;;17.65;43.88;101600.72;4824660;29;45715;-76
2022/09/19 11:34:53;;;;;;;;;1.00;0.00;;;;;17.72;43.44;101608.97;4824216;29;46987;-77
2022/09/19 11:37:34;;;;;;;;;0.00;0.00;;;;;17.46;43.07;101561.63;4790037;29;46069;-80
2022/09/19 11:40:25;;;;;;;;;0.00;0.00;;;;;17.66;43.24;101581.16;4823397;29;45587;-76
2022/09/19 11:46:37;;;;;;;;;1.25;1.00;;;;;17.94;41.67;101598.19;4824192;29;46114;-77
2022/09/19 11:49:23;;;;;;;;;0.00;0.00;;;;;17.99;41.36;101606.59;4824035;29;46110;-77
2022/09/19 11:52:11;;;;;;;;;0.00;0.00;;;;;18.05;41.35;101603.41;4824771;29;45637;-77
2022/09/19 11:54:44;;;;;;;;;0.00;0.00;;;;;18.11;41.57;101583.47;4824022;29;45579;-77
2022/09/19 11:57:26;;;;;;;;;0.00;0.00;;;;;18.17;41.99;101588.25;4823964;29;46651;-75
2022/09/19 12:00:21;;;;;;;;;1.00;0.00;;;;;18.24;41.65;101579.63;4807544;29;46109;-76
2022/09/19 12:03:02;;;;;;;;;1.00;0.00;;;;;18.30;41.12;101579.06;4822372;29;45804;-76
2022/09/19 12:05:44;;;;;;;;;2.00;1.00;;;;;18.31;41.38;101575.44;4824484;29;45869;-76
2022/09/19 12:08:45;;;;;;;;;1.00;0.00;;;;;18.30;41.25;101572.97;4824233;29;46344;-75
2022/09/19 12:11:18;;;;;;;;;0.00;0.00;;;;;18.30;40.72;101587.03;4824127;29;46982;-77
2022/09/19 12:13:59;;;;;;;;;0.00;0.00;;;;;18.27;41.26;101578.50;4823711;29;45876;-75
2022/09/19 12:16:50;;;;;;;;;0.00;0.00;;;;;18.27;40.89;101586.47;4823951;29;45643;-77
2022/09/19 12:19:45;;;;;;;;;1.00;1.00;;;;;18.31;40.73;101585.22;4822568;29;47141;-77
2022/09/19 12:22:20;;;;;;;;;0.00;0.00;;;;;18.22;40.59;101556.84;4817507;29;45953;-79
2022/09/19 12:25:12;;;;;;;;;0.00;0.00;;;;;18.36;39.96;101573.22;4823679;29;45591;-78
2022/09/19 12:31:04;;;;;;;;;1.00;1.00;;;;;18.47;39.93;101566.97;4823539;29;46228;-74
2022/09/19 12:33:46;;;;;;;;;1.25;0.00;;;;;18.51;39.54;101565.75;4823165;29;46659;-75
2022/09/19 12:36:30;;;;;;;;;0.00;0.00;;;;;18.48;39.45;101551.88;4823395;29;45699;-77
2022/09/19 12:39:04;;;;;;;;;0.00;0.00;;;;;18.56;38.69;101555.59;4823518;29;45500;-75
2022/09/19 12:41:48;;;;;;;;;1.00;0.00;;;;;18.52;39.23;101540.84;4830949;29;45648;-85
2022/09/19 12:48:19;;;;;;;;;0.75;0.50;;;;;18.66;39.16;101553.78;4827303;29;45714;-87
2022/09/19 12:50:49;;;;;;;;;1.00;0.75;;;;;18.72;38.60;101544.44;4810535;29;45490;-81
2022/09/19 12:53:53;;;;;;;;;2.00;1.00;;;;;18.83;38.80;101550.44;4824962;29;45677;-80
2022/09/19 12:56:19;;;;;;;;;1.00;1.00;;;;;18.89;38.38;101554.38;4825680;29;46688;-79
2022/09/19 13:02:24;;;;;;;;;0.75;0.75;;;;;18.94;37.54;101546.81;4831586;29;45720;-84
2022/09/19 13:05:29;;;;;;;;;0.00;0.00;;;;;19.05;37.66;101551.16;4825133;29;48365;-80
2022/09/19 13:08:00;;;;;;;;;0.00;0.00;;;;;19.01;37.92;101533.78;4750055;29;46119;-79
2022/09/19 13:10:58;;;;;;;;;1.25;0.00;;;;;19.12;37.43;101542.44;4751566;29;45646;-80
2022/09/19 13:13:40;;;;;;;;;0.00;0.00;;;;;19.13;37.72;101549.44;4731069;29;45760;-78
2022/09/19 13:16:08;;;;;;;;;0.00;0.00;;;;;19.17;37.27;101539.38;4734611;29;47038;-85
2022/09/19 13:24:08;;;;;;;;;1.00;0.00;;;;;19.29;37.72;101536.41;4748529;29;45665;-75
2022/09/19 13:26:36;;;;;;;;;0.25;0.25;;;;;19.26;37.76;101517.28;4748367;29;46660;-77
2022/09/19 13:29:28;;;;;;;;;0.25;0.00;;;;;19.38;37.73;101537.38;4748617;29;45737;-76
2022/09/19 13:31:57;;;;;;;;;0.00;0.00;;;;;19.43;37.59;101532.50;4733485;29;46392;-75
2022/09/19 13:35:00;;;;;;;;;0.00;0.00;;;;;19.48;37.43;101518.81;4733387;29;45885;-77
2022/09/19 13:37:25;;;;;;;;;2.50;2.00;;;;;19.51;37.16;101524.66;4748304;29;45769;-77
2022/09/19 13:40:17;;;;;;;;;0.00;0.00;;;;;19.54;37.38;101527.00;4750827;29;46480;-85
2022/09/19 13:46:31;;;;;;;;;0.00;0.00;;;;;19.55;37.10;101501.25;4832551;29;45564;-84
2022/09/19 13:49:15;;;;;;;;;0.00;0.00;;;;;19.66;36.83;101523.19;4827994;29;46332;-83
2022/09/19 13:52:04;;;;;;;;;1.75;0.00;;;;;19.70;37.53;101523.78;4826536;29;47099;-81
2022/09/19 13:54:33;;;;;;;;;1.00;0.00;;;;;19.67;36.94;101532.84;4834083;29;45616;-79